Terminal Aerodrome Forecast
Issued by NWS Wilmington, OH

Home | Current Version | Previous Version | Text Only | Print | Product List | Glossary On
Versions: 1 2 3 4 5 6 7 8 9 10 11 12 13 14 15 16 17
000
FTUS41 KILN 180833 AAA
TAFCMH
TAF AMD
KCMH 180833Z 1809/1906 18005KT P6SM OVC050
     FM181000 20004KT P6SM OVC015
     FM181300 21009KT P6SM -DZ OVC008
     FM182200 23008KT P6SM OVC012=

USA.gov is the U.S. government's official web portal to all federal, state and local government web resources and services.